createdAt,value
2019-01-24T00:00:17.130Z,53.03
2019-01-24T00:02:45.438Z,51.93
2019-01-24T00:05:13.733Z,50.60
2019-01-24T00:07:42.101Z,49.30
2019-01-24T00:10:11.472Z,50.30
2019-01-24T00:12:39.830Z,49.80
2019-01-24T00:15:09.627Z,49.73
2019-01-24T00:17:37.954Z,50.20
2019-01-24T00:20:09.126Z,49.70
2019-01-24T00:22:37.407Z,50.03
2019-01-24T00:25:07.587Z,48.90
2019-01-24T00:27:35.934Z,48.37
2019-01-24T00:30:15.928Z,49.97
2019-01-24T00:32:44.320Z,47.17
2019-01-24T00:58:31.029Z,48.70
2019-01-24T01:00:37.178Z,48.43
2019-01-24T01:27:07.330Z,50.47
2019-01-24T01:30:16.887Z,47.80
2019-01-24T01:33:07.821Z,49.47
2019-01-24T01:35:46.471Z,48.90
2019-01-24T01:52:23.006Z,47.23
2019-01-24T01:54:51.278Z,49.53
2019-01-24T01:57:19.585Z,50.60
2019-01-24T01:59:48.198Z,50.57
2019-01-24T02:02:20.172Z,49.57
2019-01-24T02:04:49.365Z,50.17
2019-01-24T02:07:18.342Z,50.67
2019-01-24T02:09:47.071Z,50.77
2019-01-24T02:12:15.985Z,50.17
2019-01-24T02:14:45.082Z,51.47
2019-01-24T02:17:13.972Z,53.97
2019-01-24T02:19:46.209Z,49.33
2019-01-24T02:22:15.085Z,51.13
2019-01-24T02:24:44.069Z,49.73
2019-01-24T02:27:13.032Z,50.23
2019-01-24T02:29:42.022Z,51.40
2019-01-24T02:32:11.030Z,50.70
2019-01-24T02:34:40.003Z,53.40
2019-01-24T02:37:08.885Z,51.30
2019-01-24T02:39:37.674Z,50.03
2019-01-24T02:42:06.601Z,49.30
2019-01-24T02:44:37.190Z,52.03
2019-01-24T02:47:08.189Z,50.80
2019-01-24T02:49:36.789Z,53.90
2019-01-24T02:52:08.817Z,55.00
2019-01-24T02:54:37.459Z,53.33
2019-01-24T02:57:05.949Z,54.67
2019-01-24T02:59:34.764Z,56.67
2019-01-24T03:02:03.694Z,55.93
2019-01-24T03:04:32.479Z,58.93
2019-01-24T03:07:01.378Z,60.27
2019-01-24T03:09:32.963Z,58.50
2019-01-24T03:12:01.608Z,60.10
2019-01-24T03:14:30.595Z,57.63
2019-01-24T03:16:59.432Z,58.60
2019-01-24T03:19:28.061Z,57.40
2019-01-24T03:21:57.107Z,54.70
2019-01-24T03:24:25.872Z,55.97
2019-01-24T03:26:59.315Z,59.93
2019-01-24T03:29:28.365Z,55.83
2019-01-24T03:31:57.175Z,55.70
2019-01-24T03:34:26.177Z,53.20
2019-01-24T03:36:55.184Z,55.70
2019-01-24T03:39:24.112Z,57.43
2019-01-24T03:41:52.961Z,56.27
2019-01-24T03:44:21.497Z,57.77
2019-01-24T03:46:50.224Z,61.63
2019-01-24T03:49:19.091Z,60.27
2019-01-24T03:51:59.908Z,58.10
2019-01-24T03:54:28.606Z,56.37
2019-01-24T03:56:57.551Z,55.50
2019-01-24T03:59:26.356Z,55.40
2019-01-24T04:01:55.180Z,57.70
2019-01-24T04:04:23.978Z,57.90
2019-01-24T04:06:52.908Z,57.80
2019-01-24T04:09:21.521Z,61.63
2019-01-24T04:11:49.926Z,56.60
2019-01-24T04:14:18.630Z,57.90
2019-01-24T04:16:47.374Z,58.23
2019-01-24T04:19:16.114Z,52.43
2019-01-24T04:21:44.929Z,55.37
2019-01-24T04:24:13.685Z,54.67
2019-01-24T04:26:42.655Z,57.00
2019-01-24T04:29:13.002Z,57.90
2019-01-24T04:31:41.862Z,59.23
2019-01-24T04:34:10.371Z,56.67
2019-01-24T04:36:38.874Z,60.73
2019-01-24T04:39:07.752Z,57.57
2019-01-24T04:41:39.651Z,57.37
2019-01-24T04:44:08.365Z,60.40
2019-01-24T04:46:37.174Z,60.70
2019-01-24T04:49:06.044Z,59.27
2019-01-24T04:51:34.869Z,56.60
2019-01-24T04:54:03.841Z,57.47
2019-01-24T04:56:32.657Z,57.87
2019-01-24T04:59:01.938Z,59.10
2019-01-24T05:01:30.980Z,56.73
2019-01-24T05:03:59.867Z,57.13
2019-01-24T05:06:28.817Z,58.73
2019-01-24T05:08:59.151Z,56.13
2019-01-24T05:11:28.008Z,59.60
2019-01-24T05:13:56.998Z,57.40
2019-01-24T05:16:25.934Z,59.37
2019-01-24T05:18:54.792Z,58.67
2019-01-24T05:21:23.764Z,53.07
2019-01-24T05:23:52.570Z,50.43
2019-01-24T05:26:21.491Z,55.63
2019-01-24T05:36:13.288Z,54.87
2019-01-24T05:42:12.500Z,56.13
2019-01-24T05:44:40.911Z,56.73
2019-01-24T05:47:09.408Z,58.90
2019-01-24T05:49:37.720Z,58.97
2019-01-24T05:52:06.304Z,58.20
2019-01-24T05:54:34.744Z,60.37
2019-01-24T05:57:06.609Z,57.33
2019-01-24T05:59:35.289Z,56.10
2019-01-24T06:04:49.580Z,55.97
2019-01-24T06:15:52.140Z,53.23
2019-01-24T06:18:22.202Z,55.40
2019-01-24T06:20:57.738Z,51.83
2019-01-24T06:23:41.632Z,55.53
2019-01-24T06:26:34.035Z,51.47
2019-01-24T06:29:08.478Z,53.60
2019-01-24T06:31:41.361Z,54.87
2019-01-24T06:37:43.345Z,51.40
2019-01-24T06:43:12.806Z,53.57
2019-01-24T06:46:04.944Z,54.67
2019-01-24T06:55:17.678Z,52.50
2019-01-24T06:57:46.020Z,56.90
2019-01-24T07:00:24.872Z,56.03
2019-01-24T07:03:05.283Z,56.20
2019-01-24T07:05:48.278Z,59.00
2019-01-24T07:08:44.047Z,56.13
2019-01-24T07:11:18.605Z,58.27
2019-01-24T07:13:59.023Z,60.67
2019-01-24T07:16:33.692Z,59.03
2019-01-24T07:19:42.818Z,58.27
2019-01-24T07:22:07.690Z,60.70
2019-01-24T07:24:48.927Z,58.40
2019-01-24T07:27:17.529Z,61.17
2019-01-24T07:29:46.361Z,61.47
2019-01-24T07:32:15.059Z,59.90
2019-01-24T07:34:43.942Z,61.00
2019-01-24T07:37:12.393Z,58.73
2019-01-24T07:39:41.399Z,62.57
2019-01-24T07:42:10.265Z,60.23
2019-01-24T07:44:41.786Z,61.00
2019-01-24T07:47:10.768Z,60.83
2019-01-24T07:49:39.157Z,61.13
2019-01-24T07:52:07.944Z,61.87
2019-01-24T07:54:37.873Z,59.90
2019-01-24T07:57:06.401Z,60.13
2019-01-24T07:59:35.145Z,59.80
2019-01-24T08:02:04.326Z,60.70
2019-01-24T08:04:33.045Z,59.80
2019-01-24T08:07:01.717Z,63.30
2019-01-24T08:09:30.231Z,60.07
2019-01-24T08:11:58.887Z,56.77
2019-01-24T08:14:27.243Z,58.10
2019-01-24T08:16:55.806Z,57.17
2019-01-24T08:19:26.958Z,58.60
2019-01-24T08:21:57.427Z,55.77
2019-01-24T08:24:25.936Z,55.10
2019-01-24T08:26:54.791Z,55.30
2019-01-24T08:29:26.295Z,54.43
2019-01-24T08:31:54.934Z,55.17
2019-01-24T08:34:23.310Z,53.93
2019-01-24T08:36:53.468Z,56.80
2019-01-24T08:41:57.448Z,56.77
2019-01-24T08:44:25.714Z,58.47
2019-01-24T08:46:53.990Z,61.07
2019-01-24T08:49:22.268Z,58.07
2019-01-24T08:51:50.561Z,61.77
2019-01-24T08:54:18.817Z,59.80
2019-01-24T08:56:47.082Z,57.60
2019-01-24T08:59:15.372Z,57.03
2019-01-24T09:01:43.636Z,54.77
2019-01-24T09:04:11.905Z,51.20
2019-01-24T09:06:40.202Z,53.37
2019-01-24T09:09:08.553Z,54.67
2019-01-24T09:11:36.891Z,55.63
2019-01-24T09:14:05.172Z,52.70
2019-01-24T09:16:33.442Z,56.80
2019-01-24T09:19:01.722Z,52.37
2019-01-24T09:21:30.001Z,57.43
2019-01-24T09:23:58.296Z,54.20
2019-01-24T09:26:29.332Z,54.73
2019-01-24T09:28:57.583Z,52.70
2019-01-24T09:31:25.877Z,53.63
2019-01-24T09:33:54.214Z,55.43
2019-01-24T09:36:22.494Z,54.43
2019-01-24T09:38:50.758Z,54.27
2019-01-24T09:41:19.039Z,55.07
2019-01-24T09:43:47.342Z,56.20
2019-01-24T09:46:15.596Z,56.93
2019-01-24T09:48:43.865Z,58.47
2019-01-24T09:51:12.138Z,54.07
2019-01-24T09:53:40.419Z,53.73
2019-01-24T09:56:08.696Z,57.33
2019-01-24T09:58:36.960Z,57.87
2019-01-24T10:01:05.221Z,54.67
2019-01-24T10:03:33.493Z,57.10
2019-01-24T10:06:01.840Z,57.13
2019-01-24T10:08:30.191Z,56.30
2019-01-24T10:10:58.516Z,56.07
2019-01-24T10:13:26.781Z,55.27
2019-01-24T10:15:55.080Z,54.20
2019-01-24T10:18:23.337Z,54.40
2019-01-24T10:20:51.609Z,53.20
2019-01-24T10:23:19.883Z,52.83
2019-01-24T10:25:48.178Z,53.63
2019-01-24T10:28:16.438Z,55.03
2019-01-24T10:30:44.710Z,55.07
2019-01-24T10:33:12.962Z,56.67
2019-01-24T10:35:41.266Z,55.53
2019-01-24T10:38:09.516Z,54.27
2019-01-24T10:40:37.770Z,53.67
2019-01-24T10:43:06.051Z,56.63
2019-01-24T10:45:34.310Z,56.20
2019-01-24T10:48:02.604Z,51.93
2019-01-24T10:50:30.892Z,54.73
2019-01-24T10:52:59.141Z,52.60
2019-01-24T10:55:28.349Z,52.13
2019-01-24T10:57:58.574Z,53.27
2019-01-24T11:00:35.470Z,53.90
2019-01-24T11:03:06.273Z,52.27
2019-01-24T11:05:34.533Z,52.07
2019-01-24T11:08:02.878Z,50.73
2019-01-24T11:10:31.170Z,51.93
2019-01-24T11:12:59.415Z,56.17
2019-01-24T11:15:27.714Z,51.73
2019-01-24T11:17:55.996Z,51.10
2019-01-24T11:20:24.262Z,51.67
2019-01-24T11:22:52.512Z,51.40
2019-01-24T11:25:22.911Z,52.20
2019-01-24T11:27:51.167Z,48.67
2019-01-24T11:30:28.270Z,46.50
2019-01-24T11:32:56.562Z,48.97
2019-01-24T11:35:33.449Z,51.53
2019-01-24T11:38:01.812Z,46.70
2019-01-24T11:40:30.067Z,48.60
2019-01-24T11:42:58.327Z,47.03
2019-01-24T11:45:32.265Z,50.87
2019-01-24T11:48:00.525Z,54.53
2019-01-24T11:50:28.784Z,57.30
2019-01-24T11:52:57.041Z,56.23
2019-01-24T11:55:25.301Z,53.57
2019-01-24T11:57:53.769Z,55.60
2019-01-24T12:00:35.170Z,57.03
2019-01-24T12:03:03.531Z,54.73
2019-01-24T12:05:31.881Z,56.10
2019-01-24T12:08:00.287Z,57.00
2019-01-24T12:10:29.970Z,56.80
2019-01-24T12:12:58.241Z,56.23
2019-01-24T12:15:29.799Z,53.10
2019-01-24T12:17:58.117Z,51.23
2019-01-24T12:20:26.593Z,51.80
2019-01-24T12:22:55.115Z,52.03
2019-01-24T12:25:23.519Z,53.93
2019-01-24T12:27:51.852Z,57.77
2019-01-24T12:30:28.898Z,58.50
2019-01-24T12:33:00.668Z,54.00
2019-01-24T12:35:29.301Z,57.07
2019-01-24T12:37:57.632Z,56.37
2019-01-24T12:40:25.958Z,54.87
2019-01-24T12:42:54.304Z,54.07
2019-01-24T12:45:27.728Z,56.97
2019-01-24T12:47:56.174Z,54.57
2019-01-24T12:50:24.542Z,55.43
2019-01-24T12:52:52.907Z,57.50
2019-01-24T12:55:21.312Z,54.43
2019-01-24T12:57:49.756Z,55.27
2019-01-24T13:00:29.498Z,54.80
2019-01-24T13:02:57.909Z,54.17
2019-01-24T13:05:26.240Z,56.13
2019-01-24T13:07:54.673Z,55.67
2019-01-24T13:10:24.850Z,54.77
2019-01-24T13:12:53.182Z,53.23
2019-01-24T13:15:27.411Z,54.80
2019-01-24T13:17:55.684Z,52.03
2019-01-24T13:20:24.042Z,53.83
2019-01-24T13:22:54.453Z,52.90
2019-01-24T13:25:28.143Z,53.80
2019-01-24T13:28:00.877Z,54.47
2019-01-24T13:30:35.367Z,54.83
2019-01-24T13:33:05.899Z,53.80
2019-01-24T13:35:38.542Z,54.00
2019-01-24T13:38:08.703Z,51.17
2019-01-24T13:40:39.190Z,52.07
2019-01-24T13:43:07.628Z,52.47
2019-01-24T13:45:36.857Z,48.80
2019-01-24T13:48:11.412Z,48.87
2019-01-24T13:50:39.769Z,51.13
2019-01-24T13:53:08.192Z,49.80
2019-01-24T13:55:42.520Z,49.70
2019-01-24T13:58:21.577Z,51.30
2019-01-24T14:00:51.542Z,50.77
2019-01-24T14:03:48.565Z,49.23
2019-01-24T14:06:38.581Z,52.03
2019-01-24T14:08:44.478Z,50.10
2019-01-24T14:11:18.079Z,49.90
2019-01-24T14:13:44.485Z,50.43
2019-01-24T14:16:15.579Z,48.73
2019-01-24T14:18:46.524Z,51.13
2019-01-24T14:21:19.338Z,49.97
2019-01-24T14:23:50.691Z,48.83
2019-01-24T14:26:21.658Z,48.27
2019-01-24T14:28:49.975Z,51.27
2019-01-24T14:31:18.261Z,51.47
2019-01-24T14:33:46.522Z,49.87
2019-01-24T14:36:14.933Z,48.73
2019-01-24T14:38:43.298Z,48.23
2019-01-24T14:41:11.539Z,49.97
2019-01-24T14:43:39.815Z,50.40
2019-01-24T14:46:08.080Z,48.93
2019-01-24T14:48:36.657Z,49.90
2019-01-24T14:51:04.906Z,50.47
2019-01-24T14:53:33.197Z,50.57
2019-01-24T14:56:01.464Z,49.50
2019-01-24T14:58:29.725Z,50.80
2019-01-24T15:01:01.369Z,48.47
2019-01-24T15:03:29.628Z,45.97
2019-01-24T15:05:57.912Z,46.30
2019-01-24T15:08:26.185Z,50.23
2019-01-24T15:10:54.457Z,48.33
2019-01-24T15:13:22.775Z,51.00
2019-01-24T15:15:51.026Z,49.83
2019-01-24T15:18:19.333Z,50.57
2019-01-24T15:20:47.611Z,52.70
2019-01-24T15:23:35.327Z,50.33
2019-01-24T15:26:04.470Z,49.33
2019-01-24T15:28:32.736Z,51.43
2019-01-24T15:31:01.003Z,50.80
2019-01-24T15:33:29.282Z,53.20
2019-01-24T15:35:57.574Z,47.77
2019-01-24T15:38:25.865Z,52.33
2019-01-24T15:40:54.142Z,51.43
2019-01-24T15:43:22.406Z,51.70
2019-01-24T15:45:50.686Z,53.70
2019-01-24T15:48:18.979Z,49.53
2019-01-24T15:50:47.244Z,50.03
2019-01-24T15:53:15.515Z,52.40
2019-01-24T15:55:43.783Z,54.17
2019-01-24T15:58:12.065Z,53.90
2019-01-24T16:00:40.369Z,51.70
2019-01-24T16:03:08.636Z,54.47
2019-01-24T16:05:36.913Z,55.07
2019-01-24T16:08:05.178Z,56.40
2019-01-24T16:10:33.521Z,52.47
2019-01-24T16:13:01.823Z,55.50
2019-01-24T16:15:34.957Z,56.27
2019-01-24T16:18:03.223Z,55.43
2019-01-24T16:20:31.501Z,55.90
2019-01-24T16:22:59.772Z,54.93
2019-01-24T16:25:30.693Z,54.77
2019-01-24T16:27:58.956Z,51.63
2019-01-24T16:30:35.200Z,55.13
2019-01-24T16:33:05.040Z,53.23
2019-01-24T16:35:33.307Z,53.43
2019-01-24T16:38:01.586Z,53.93
2019-01-24T16:40:30.049Z,56.73
2019-01-24T16:42:58.306Z,53.23
2019-01-24T16:45:28.143Z,52.63
2019-01-24T16:47:56.440Z,53.37
2019-01-24T16:50:25.839Z,52.77
2019-01-24T16:52:54.113Z,52.80
2019-01-24T16:55:22.388Z,51.23
2019-01-24T16:57:51.491Z,52.50
2019-01-24T17:00:28.695Z,54.77
2019-01-24T17:02:56.968Z,52.67
2019-01-24T17:05:25.268Z,54.10
2019-01-24T17:07:53.546Z,55.83
2019-01-24T17:10:26.371Z,56.67
2019-01-24T17:12:54.641Z,55.47
2019-01-24T17:15:22.906Z,57.27
2019-01-24T17:17:51.203Z,57.87
2019-01-24T17:20:31.868Z,60.70
2019-01-24T17:23:00.141Z,60.47
2019-01-24T17:25:30.984Z,59.33
2019-01-24T17:27:59.256Z,55.37
2019-01-24T17:30:30.816Z,61.10
2019-01-24T17:32:59.158Z,67.93
2019-01-24T17:35:27.436Z,69.30
2019-01-24T17:37:55.729Z,61.57
2019-01-24T17:40:25.737Z,61.33
2019-01-24T17:42:54.033Z,59.53
2019-01-24T17:45:22.365Z,58.77
2019-01-24T17:47:50.630Z,59.53
2019-01-24T17:50:18.922Z,61.40
2019-01-24T17:52:47.192Z,60.73
2019-01-24T17:55:27.453Z,60.87
2019-01-24T17:57:55.719Z,62.00
2019-01-24T18:00:25.795Z,61.23
2019-01-24T18:02:54.090Z,60.60
2019-01-24T18:05:22.442Z,56.73
2019-01-24T18:07:50.841Z,51.63
2019-01-24T18:10:22.032Z,54.87
2019-01-24T18:12:50.303Z,55.77
2019-01-24T18:15:23.740Z,60.77
2019-01-24T18:17:52.009Z,59.10
2019-01-24T18:20:22.716Z,55.60
2019-01-24T18:22:50.989Z,58.03
2019-01-24T18:25:19.259Z,55.10
2019-01-24T18:27:47.564Z,56.67
2019-01-24T18:30:24.112Z,57.17
2019-01-24T18:32:52.415Z,56.00
2019-01-24T18:35:20.753Z,57.27
2019-01-24T18:37:49.022Z,57.97
2019-01-24T18:40:25.753Z,56.13
2019-01-24T18:42:54.357Z,55.63
2019-01-24T18:45:40.817Z,56.93
2019-01-24T18:48:09.087Z,56.20
2019-01-24T18:50:37.385Z,56.70
2019-01-24T18:53:05.667Z,61.00
2019-01-24T18:55:35.898Z,63.83
2019-01-24T18:58:04.363Z,59.07
2019-01-24T19:00:34.290Z,64.07
2019-01-24T19:03:02.576Z,64.17
2019-01-24T19:05:30.846Z,58.37
2019-01-24T19:07:59.140Z,57.13
2019-01-24T19:10:27.408Z,59.80
2019-01-24T19:12:55.691Z,59.20
2019-01-24T19:15:24.530Z,57.10
2019-01-24T19:17:53.064Z,58.70
2019-01-24T19:20:21.366Z,58.37
2019-01-24T19:22:49.626Z,59.50
2019-01-24T19:25:21.842Z,60.07
2019-01-24T19:27:50.106Z,63.23
2019-01-24T19:30:23.392Z,59.07
2019-01-24T19:32:51.738Z,59.07
2019-01-24T19:35:19.997Z,59.70
2019-01-24T19:37:48.295Z,60.27
2019-01-24T19:40:22.256Z,59.33
2019-01-24T19:42:50.541Z,57.70
2019-01-24T19:45:20.860Z,58.17
2019-01-24T19:47:49.124Z,58.17
2019-01-24T19:50:20.663Z,59.57
2019-01-24T19:52:49.071Z,60.67
2019-01-24T19:55:17.429Z,58.13
2019-01-24T19:57:45.699Z,59.60
2019-01-24T20:00:29.023Z,59.83
2019-01-24T20:02:57.349Z,57.37
2019-01-24T20:05:25.624Z,58.57
2019-01-24T20:07:53.898Z,57.10
2019-01-24T20:10:24.664Z,60.40
2019-01-24T20:13:10.109Z,58.60
2019-01-24T20:15:38.413Z,57.43
2019-01-24T20:18:06.805Z,58.60
2019-01-24T20:20:35.206Z,58.70
2019-01-24T20:23:03.685Z,58.17
2019-01-24T20:25:34.160Z,56.10
2019-01-24T20:28:02.429Z,59.27
2019-01-24T20:30:39.855Z,55.00
2019-01-24T20:33:08.158Z,60.57
2019-01-24T20:35:39.723Z,58.77
2019-01-24T20:38:09.565Z,57.30
2019-01-24T20:40:37.902Z,57.43
2019-01-24T20:43:07.888Z,57.27
2019-01-24T20:45:36.465Z,55.87
2019-01-24T20:48:05.333Z,60.37
2019-01-24T20:50:33.831Z,56.97
2019-01-24T20:53:02.293Z,54.90
2019-01-24T20:55:30.775Z,57.43
2019-01-24T20:57:59.400Z,60.43
2019-01-24T21:00:28.123Z,56.50
2019-01-24T21:02:56.646Z,59.47
2019-01-24T21:05:25.617Z,59.77
2019-01-24T21:07:56.772Z,59.07
2019-01-24T21:10:29.688Z,59.03
2019-01-24T21:12:58.272Z,55.27
2019-01-24T21:15:26.661Z,59.30
2019-01-24T21:17:55.115Z,54.87
2019-01-24T21:20:25.616Z,58.40
2019-01-24T21:22:54.125Z,57.50
2019-01-24T21:25:25.138Z,53.63
2019-01-24T21:27:53.674Z,54.90
2019-01-24T21:30:27.539Z,56.77
2019-01-24T21:32:55.957Z,56.83
2019-01-24T21:35:24.309Z,56.47
2019-01-24T21:37:52.655Z,60.10
2019-01-24T21:40:23.219Z,61.07
2019-01-24T21:42:51.782Z,58.30
2019-01-24T21:45:31.502Z,55.83
2019-01-24T21:47:59.828Z,60.60
2019-01-24T21:50:32.848Z,61.17
2019-01-24T21:53:01.257Z,59.67
2019-01-24T21:55:29.980Z,60.20
2019-01-24T21:57:58.394Z,62.10
2019-01-24T22:00:28.249Z,60.50
2019-01-24T22:02:56.747Z,58.87
2019-01-24T22:05:25.295Z,60.50
2019-01-24T22:07:53.799Z,64.00
2019-01-24T22:10:26.859Z,60.13
2019-01-24T22:12:55.487Z,61.00
2019-01-24T22:15:26.162Z,63.07
2019-01-24T22:17:57.685Z,62.33
2019-01-24T22:20:27.790Z,62.53
2019-01-24T22:22:56.232Z,63.53
2019-01-24T22:25:26.908Z,58.87
2019-01-24T22:27:55.402Z,62.63
2019-01-24T22:30:40.335Z,60.60
2019-01-24T22:33:09.028Z,63.83
2019-01-24T22:35:37.307Z,61.93
2019-01-24T22:38:06.671Z,61.27
2019-01-24T22:40:35.033Z,60.40
2019-01-24T22:43:03.600Z,60.93
2019-01-24T22:45:32.118Z,63.90
2019-01-24T22:48:00.604Z,62.00
2019-01-24T22:50:29.088Z,64.27
2019-01-24T22:52:57.582Z,63.57
2019-01-24T22:55:25.943Z,62.03
2019-01-24T22:57:54.331Z,62.73
2019-01-24T23:00:36.391Z,60.07
2019-01-24T23:03:05.222Z,61.00
2019-01-24T23:05:33.683Z,62.60
2019-01-24T23:08:02.112Z,59.87
2019-01-24T23:10:30.776Z,63.10
2019-01-24T23:12:59.391Z,59.63
2019-01-24T23:15:27.844Z,65.47
2019-01-24T23:17:56.487Z,63.53
2019-01-24T23:20:24.965Z,62.17
2019-01-24T23:22:53.377Z,63.47
2019-01-24T23:25:22.022Z,60.67
2019-01-24T23:27:50.509Z,61.13
2019-01-24T23:30:18.867Z,62.83
2019-01-24T23:32:47.330Z,59.40
2019-01-24T23:35:15.904Z,63.33
2019-01-24T23:37:44.466Z,61.47
2019-01-24T23:40:12.934Z,64.63
2019-01-24T23:42:44.417Z,65.07
2019-01-24T23:45:12.896Z,60.23
2019-01-24T23:47:41.429Z,58.20
2019-01-24T23:50:09.882Z,62.40
2019-01-24T23:52:38.471Z,60.67
2019-01-24T23:55:09.789Z,61.20
2019-01-24T23:57:43.143Z,60.63
